Time;durP1;ratioP1;P1;durP2;ratioP2;P2;SDS_P1;SDS_P2;PMS_P1;PMS_P2;Temp;Humidity;BMP_temperature;BMP_pressure;BME280_temperature;BME280_humidity;BME280_pressure;Samples;Min_cycle;Max_cycle;Signal;HPM_P1;HPM_P2
2024/01/18 00:01:31;;;;;;;39.80;20.58;;;-1.20;99.90;;;;;;5009420;28;20049;-67
2024/01/18 00:04:00;;;;;;;37.65;21.13;;;-1.20;99.90;;;;;;4996945;28;20154;-67
2024/01/18 00:06:27;;;;;;;35.95;19.55;;;-1.20;99.90;;;;;;5010325;28;20038;-67
2024/01/18 00:08:52;;;;;;;39.05;19.17;;;-1.10;99.90;;;;;;5006988;28;20061;-66
2024/01/18 00:11:18;;;;;;;33.90;19.88;;;-1.20;99.90;;;;;;5002022;28;20037;-67
2024/01/18 00:13:47;;;;;;;37.90;20.40;;;-1.20;99.90;;;;;;5012049;28;20076;-67
2024/01/18 00:16:13;;;;;;;33.67;19.25;;;-1.20;99.90;;;;;;5012407;28;20130;-67
2024/01/18 00:18:38;;;;;;;37.17;20.73;;;-1.20;99.90;;;;;;5005562;28;20037;-67
2024/01/18 00:21:04;;;;;;;34.95;19.98;;;-1.20;99.90;;;;;;5007618;28;20374;-67
2024/01/18 00:23:30;;;;;;;39.38;19.77;;;-1.20;99.90;;;;;;5011284;28;20488;-67
2024/01/18 00:25:55;;;;;;;36.25;20.02;;;-1.20;99.90;;;;;;5007636;28;20042;-67
2024/01/18 00:28:21;;;;;;;36.70;20.05;;;-1.10;99.90;;;;;;5011263;28;20496;-64
2024/01/18 00:30:46;;;;;;;38.85;21.38;;;-1.20;99.90;;;;;;5010708;28;20046;-65
2024/01/18 00:33:12;;;;;;;35.97;20.00;;;-1.20;99.90;;;;;;5008184;28;20124;-65
2024/01/18 00:35:38;;;;;;;35.85;19.70;;;-1.30;99.90;;;;;;5006304;28;20451;-65
2024/01/18 00:38:03;;;;;;;36.97;20.77;;;-1.40;99.90;;;;;;5011422;28;20121;-66
2024/01/18 00:40:29;;;;;;;40.35;20.45;;;-1.50;99.90;;;;;;5007358;28;20037;-65
2024/01/18 00:42:55;;;;;;;32.85;18.63;;;-1.40;99.90;;;;;;4994125;28;20057;-66
2024/01/18 00:45:20;;;;;;;37.50;19.75;;;-1.40;99.90;;;;;;5011420;28;20064;-65
2024/01/18 00:47:46;;;;;;;32.75;18.52;;;-1.40;99.90;;;;;;5011669;28;20076;-65
2024/01/18 00:50:12;;;;;;;36.85;18.42;;;-1.30;99.90;;;;;;5011740;28;20041;-65
2024/01/18 00:52:37;;;;;;;30.98;17.08;;;-1.30;99.90;;;;;;5004219;28;20045;-65
2024/01/18 00:55:04;;;;;;;28.60;15.63;;;-1.30;99.90;;;;;;5009248;28;20042;-66
2024/01/18 00:57:29;;;;;;;31.27;14.10;;;-1.30;99.90;;;;;;5011947;28;20041;-65
2024/01/18 00:59:55;;;;;;;30.27;14.80;;;-1.20;99.90;;;;;;5001450;28;20417;-65
2024/01/18 01:02:21;;;;;;;22.70;13.88;;;-1.20;99.90;;;;;;5007491;28;20041;-64
2024/01/18 01:04:46;;;;;;;23.63;12.88;;;-1.20;99.90;;;;;;5011353;28;20251;-64
2024/01/18 01:07:12;;;;;;;26.05;13.35;;;-1.10;99.90;;;;;;5011709;28;20061;-65
2024/01/18 01:09:37;;;;;;;26.80;12.07;;;-1.10;99.90;;;;;;5001713;28;20054;-66
2024/01/18 01:12:03;;;;;;;23.42;11.43;;;-1.10;99.90;;;;;;5007351;28;20046;-64
2024/01/18 01:14:29;;;;;;;22.25;12.18;;;-1.00;99.90;;;;;;5011245;28;20038;-64
2024/01/18 01:16:55;;;;;;;23.45;10.80;;;-1.00;99.90;;;;;;4999670;28;20412;-64
2024/01/18 01:19:20;;;;;;;27.98;12.90;;;-1.10;99.90;;;;;;5010789;28;20619;-65
2024/01/18 01:21:46;;;;;;;25.15;12.10;;;-1.00;99.90;;;;;;5011268;28;20042;-65
2024/01/18 01:24:11;;;;;;;23.05;12.20;;;-1.10;99.90;;;;;;5007416;28;20043;-64
2024/01/18 01:26:37;;;;;;;25.38;12.95;;;-1.10;99.90;;;;;;5001249;28;20041;-64
2024/01/18 01:29:03;;;;;;;30.02;12.13;;;-1.10;99.90;;;;;;5011004;28;20096;-64
2024/01/18 01:31:29;;;;;;;22.27;11.88;;;-1.10;99.90;;;;;;5011631;28;20045;-64
2024/01/18 01:33:54;;;;;;;21.02;10.52;;;-1.10;99.90;;;;;;5007541;28;20045;-65
2024/01/18 01:36:20;;;;;;;20.58;10.00;;;-1.10;99.90;;;;;;5014640;28;20095;-64
2024/01/18 01:38:45;;;;;;;20.40;9.82;;;-1.10;99.90;;;;;;5014774;28;20084;-64
2024/01/18 01:41:11;;;;;;;15.57;8.82;;;-1.10;99.90;;;;;;5004851;28;20473;-64
2024/01/18 01:43:54;;;;;;;15.30;8.68;;;-1.10;99.90;;;;;;5014027;28;20496;-64
2024/01/18 01:46:20;;;;;;;18.50;8.20;;;-1.10;99.90;;;;;;5014777;28;20050;-66
2024/01/18 01:48:45;;;;;;;14.18;7.75;;;-1.00;99.90;;;;;;5011416;28;20525;-64
2024/01/18 01:51:11;;;;;;;15.75;7.75;;;-1.00;99.90;;;;;;5007023;28;20516;-66
2024/01/18 01:53:36;;;;;;;19.13;7.78;;;-1.00;99.90;;;;;;5013752;28;20483;-66
2024/01/18 01:56:02;;;;;;;14.98;8.20;;;-1.00;99.90;;;;;;5014483;28;20099;-64
2024/01/18 01:58:28;;;;;;;15.40;8.55;;;-1.00;99.90;;;;;;5009966;28;20038;-65
2024/01/18 02:00:53;;;;;;;22.98;8.73;;;-0.90;99.90;;;;;;5014066;28;20506;-65
2024/01/18 02:03:19;;;;;;;16.58;8.77;;;-1.00;99.90;;;;;;5012823;28;20576;-66
2024/01/18 02:05:44;;;;;;;16.70;8.35;;;-1.00;99.90;;;;;;5009068;28;20082;-64
2024/01/18 02:08:10;;;;;;;17.27;7.88;;;-1.00;99.90;;;;;;4997114;28;20041;-65
2024/01/18 02:10:36;;;;;;;17.60;7.82;;;-1.00;99.90;;;;;;5012339;28;20034;-64
2024/01/18 02:13:03;;;;;;;19.83;8.73;;;-1.10;99.90;;;;;;5008903;28;20088;-64
2024/01/18 02:15:28;;;;;;;18.70;8.60;;;-1.10;99.90;;;;;;5002331;28;20404;-64
2024/01/18 02:17:54;;;;;;;15.20;8.05;;;-1.10;99.90;;;;;;5013910;28;20599;-65
2024/01/18 02:20:20;;;;;;;12.90;7.45;;;-1.10;99.90;;;;;;5014251;28;20193;-64
2024/01/18 02:22:46;;;;;;;12.35;6.68;;;-1.10;99.90;;;;;;5000964;28;20056;-66
2024/01/18 02:25:32;;;;;;;16.63;8.00;;;-1.10;99.90;;;;;;4998919;28;20494;-65
2024/01/18 02:27:58;;;;;;;15.45;7.63;;;-1.10;99.90;;;;;;5006198;28;20057;-65
2024/01/18 02:30:24;;;;;;;16.02;7.60;;;-1.10;99.90;;;;;;5014048;28;20040;-65
2024/01/18 02:32:49;;;;;;;15.25;7.13;;;-1.10;99.90;;;;;;5004235;28;20030;-65
2024/01/18 02:35:16;;;;;;;12.40;6.85;;;-1.10;99.90;;;;;;5009923;28;20052;-64
2024/01/18 02:37:42;;;;;;;13.93;6.68;;;-1.20;99.90;;;;;;5014308;28;20049;-65
2024/01/18 02:40:08;;;;;;;14.15;6.35;;;-1.10;99.90;;;;;;5004195;28;20053;-64
2024/01/18 02:42:34;;;;;;;10.95;5.72;;;-1.20;99.90;;;;;;5003055;28;20069;-64
2024/01/18 02:45:02;;;;;;;9.45;4.72;;;-1.20;99.90;;;;;;5012987;28;20076;-64
2024/01/18 02:47:28;;;;;;;15.07;5.60;;;-1.20;99.90;;;;;;5013405;28;20046;-64
2024/01/18 02:49:58;;;;;;;9.93;5.03;;;-1.20;99.90;;;;;;5004523;28;20038;-64
2024/01/18 02:52:24;;;;;;;8.95;4.88;;;-1.20;99.90;;;;;;5009404;28;20053;-64
2024/01/18 02:54:49;;;;;;;11.50;4.80;;;-1.10;99.90;;;;;;5012134;28;20049;-64
2024/01/18 02:57:15;;;;;;;10.30;4.75;;;-1.20;99.90;;;;;;5000177;28;20096;-64
2024/01/18 02:59:40;;;;;;;9.85;5.13;;;-1.20;99.90;;;;;;5004989;28;20515;-64
2024/01/18 03:02:06;;;;;;;9.43;4.53;;;-1.10;99.90;;;;;;5013208;28;20116;-64
2024/01/18 03:04:32;;;;;;;10.23;4.38;;;-1.10;99.90;;;;;;5010420;28;20042;-64
2024/01/18 03:06:57;;;;;;;9.15;4.03;;;-1.10;99.90;;;;;;5000292;28;20042;-64
2024/01/18 03:09:23;;;;;;;13.05;5.65;;;-1.00;99.90;;;;;;5012738;28;20040;-65
2024/01/18 03:11:49;;;;;;;11.10;5.22;;;-1.10;99.90;;;;;;5013447;28;20042;-64
2024/01/18 03:14:14;;;;;;;9.75;4.82;;;-1.10;99.90;;;;;;5003512;28;20038;-64
2024/01/18 03:16:42;;;;;;;13.60;5.40;;;-1.20;99.90;;;;;;5007334;28;20410;-65
2024/01/18 03:19:12;;;;;;;10.25;5.20;;;-1.20;99.90;;;;;;5013125;28;20496;-64
2024/01/18 03:21:38;;;;;;;13.95;5.00;;;-1.20;99.90;;;;;;5011786;28;20041;-64
2024/01/18 03:24:04;;;;;;;10.10;4.80;;;-1.20;99.90;;;;;;5007875;28;20048;-65
2024/01/18 03:26:29;;;;;;;12.23;4.78;;;-1.20;99.90;;;;;;5012127;28;20038;-64
2024/01/18 03:28:55;;;;;;;9.85;4.20;;;-1.20;99.90;;;;;;5012862;28;20038;-64
2024/01/18 03:31:20;;;;;;;12.48;4.57;;;-1.20;99.90;;;;;;5006808;28;20088;-64
2024/01/18 03:33:46;;;;;;;9.52;4.10;;;-1.20;99.90;;;;;;5005067;28;20042;-64
2024/01/18 03:36:12;;;;;;;8.50;4.68;;;-1.20;99.90;;;;;;5012745;28;20046;-65
2024/01/18 03:38:37;;;;;;;7.35;4.32;;;-1.20;99.90;;;;;;5001640;28;20404;-63
2024/01/18 03:41:03;;;;;;;10.43;4.63;;;-1.20;99.90;;;;;;5012079;28;20508;-64
2024/01/18 03:43:29;;;;;;;10.10;4.82;;;-1.20;99.90;;;;;;5012072;28;20103;-64
2024/01/18 03:45:54;;;;;;;11.32;4.63;;;-1.20;99.90;;;;;;5010004;28;20493;-65
2024/01/18 03:48:20;;;;;;;7.82;4.13;;;-1.30;99.90;;;;;;5009774;28;20550;-64
2024/01/18 03:50:45;;;;;;;11.82;4.65;;;-1.20;99.90;;;;;;5011390;28;20034;-64
2024/01/18 03:53:11;;;;;;;9.82;5.00;;;-1.30;99.90;;;;;;5012376;28;20048;-64
2024/01/18 03:55:37;;;;;;;8.25;4.25;;;-1.30;99.90;;;;;;5003256;28;20045;-64
2024/01/18 03:58:03;;;;;;;10.52;5.05;;;-1.30;99.90;;;;;;5006623;28;20400;-64
2024/01/18 04:00:29;;;;;;;11.57;5.15;;;-1.40;99.90;;;;;;5010742;28;20033;-64
2024/01/18 04:02:54;;;;;;;12.55;4.80;;;-1.40;99.90;;;;;;5006948;28;20057;-64
2024/01/18 04:05:20;;;;;;;8.77;4.15;;;-1.40;99.90;;;;;;5008361;28;20034;-64
2024/01/18 04:07:46;;;;;;;13.45;4.40;;;-1.30;99.90;;;;;;5012109;28;20033;-64
2024/01/18 04:10:11;;;;;;;9.40;4.53;;;-1.30;99.90;;;;;;5012154;28;20554;-64
2024/01/18 04:12:37;;;;;;;11.63;4.75;;;-1.30;99.90;;;;;;4994316;28;20119;-64
2024/01/18 04:15:03;;;;;;;10.30;4.65;;;-1.30;99.90;;;;;;5006554;28;20042;-65
2024/01/18 04:17:29;;;;;;;11.80;4.78;;;-1.30;99.90;;;;;;5012051;28;20034;-65
2024/01/18 04:19:54;;;;;;;9.98;4.47;;;-1.30;99.90;;;;;;5006496;28;20522;-64
2024/01/18 04:22:22;;;;;;;10.02;5.07;;;-1.30;99.90;;;;;;4999213;28;20546;-64
2024/01/18 04:24:48;;;;;;;11.27;4.82;;;-1.30;99.90;;;;;;5011767;28;20116;-64
2024/01/18 04:27:14;;;;;;;7.55;4.50;;;-1.30;99.90;;;;;;5011900;28;20113;-64
2024/01/18 04:29:41;;;;;;;8.63;5.22;;;-1.40;99.90;;;;;;5007214;28;20029;-64
2024/01/18 04:32:07;;;;;;;8.80;4.55;;;-1.40;99.90;;;;;;5008880;28;20049;-64
2024/01/18 04:34:33;;;;;;;7.95;3.92;;;-1.30;99.90;;;;;;5010045;28;20050;-64
2024/01/18 04:36:58;;;;;;;11.00;4.65;;;-1.30;99.90;;;;;;5003399;28;20096;-65
2024/01/18 04:39:24;;;;;;;11.73;4.45;;;-1.40;99.90;;;;;;5008488;28;20041;-65
2024/01/18 04:41:49;;;;;;;9.10;4.50;;;-1.40;99.90;;;;;;5005048;28;20044;-64
2024/01/18 04:44:15;;;;;;;9.30;5.05;;;-1.40;99.90;;;;;;5009440;28;20088;-64
2024/01/18 04:46:41;;;;;;;9.18;4.10;;;-1.40;99.90;;;;;;5012037;28;20034;-64
2024/01/18 04:49:07;;;;;;;7.05;3.70;;;-1.40;99.90;;;;;;5007217;28;20519;-64
2024/01/18 04:51:32;;;;;;;8.60;4.05;;;-1.40;99.90;;;;;;5002231;28;20043;-65
2024/01/18 04:53:58;;;;;;;6.30;3.22;;;-1.30;99.90;;;;;;4999512;28;20081;-64
2024/01/18 04:56:24;;;;;;;7.35;3.15;;;-1.30;99.90;;;;;;5003833;28;20042;-64
2024/01/18 04:58:49;;;;;;;2.17;1.98;;;-1.20;99.90;;;;;;5011320;28;20042;-64
2024/01/18 05:01:15;;;;;;;4.35;2.97;;;-1.20;99.90;;;;;;5007528;28;20042;-64
2024/01/18 05:03:40;;;;;;;4.38;2.42;;;-1.20;99.90;;;;;;5009110;28;20087;-64
2024/01/18 05:06:08;;;;;;;4.88;2.42;;;-1.20;99.90;;;;;;5011627;28;20125;-64
2024/01/18 05:08:34;;;;;;;3.60;2.30;;;-1.10;99.90;;;;;;5013191;28;20042;-65
2024/01/18 05:11:00;;;;;;;5.95;2.13;;;-1.10;99.90;;;;;;5004643;28;20045;-64
2024/01/18 05:13:26;;;;;;;6.70;2.50;;;-1.10;99.90;;;;;;5003596;28;20099;-64
2024/01/18 05:15:52;;;;;;;4.43;1.83;;;-1.00;99.90;;;;;;5000792;28;20103;-64
2024/01/18 05:18:18;;;;;;;4.03;2.05;;;-0.90;99.90;;;;;;5014869;28;20085;-64
2024/01/18 05:20:44;;;;;;;5.45;2.03;;;-0.90;99.90;;;;;;5014415;28;20069;-65
2024/01/18 05:23:09;;;;;;;2.97;1.92;;;-0.90;99.90;;;;;;5011336;28;20041;-64
2024/01/18 05:25:35;;;;;;;3.53;1.95;;;-0.90;99.90;;;;;;5005492;28;20403;-64
2024/01/18 05:28:01;;;;;;;2.42;1.85;;;-0.90;99.90;;;;;;5006530;28;20519;-65
2024/01/18 05:30:26;;;;;;;4.07;1.63;;;-0.90;99.90;;;;;;5013209;28;20042;-65
2024/01/18 05:32:52;;;;;;;5.50;1.63;;;-0.90;99.90;;;;;;5014956;28;20579;-65
2024/01/18 05:35:18;;;;;;;1.77;1.40;;;-1.00;99.90;;;;;;5007276;28;20049;-64
2024/01/18 05:37:44;;;;;;;2.85;1.40;;;-1.00;99.90;;;;;;5014393;28;20033;-64
2024/01/18 05:40:10;;;;;;;1.67;1.27;;;-0.90;99.90;;;;;;5015008;28;20492;-64
2024/01/18 05:42:35;;;;;;;1.70;1.50;;;-1.00;99.90;;;;;;5004803;28;20100;-66
2024/01/18 05:45:01;;;;;;;3.67;1.30;;;-1.00;99.90;;;;;;5004029;28;20558;-64
2024/01/18 05:47:26;;;;;;;1.52;1.20;;;-1.00;99.90;;;;;;5018749;28;20036;-64
2024/01/18 05:49:52;;;;;;;2.40;1.83;;;-1.10;99.90;;;;;;5022476;28;20116;-66
2024/01/18 05:52:17;;;;;;;3.20;1.85;;;-1.10;99.90;;;;;;5020059;28;20096;-63
2024/01/18 05:54:43;;;;;;;2.50;1.60;;;-1.20;99.90;;;;;;4999967;28;20042;-66
2024/01/18 05:57:09;;;;;;;4.57;1.67;;;-1.20;99.90;;;;;;4993043;28;20100;-64
2024/01/18 05:59:34;;;;;;;2.72;1.73;;;-1.20;99.90;;;;;;4999461;28;20052;-64
2024/01/18 06:02:00;;;;;;;2.05;1.60;;;-1.20;99.90;;;;;;4996145;28;20389;-65
2024/01/18 06:04:25;;;;;;;2.85;1.73;;;-1.20;99.90;;;;;;5010637;28;20038;-66
2024/01/18 06:06:51;;;;;;;4.30;1.70;;;-1.20;99.90;;;;;;5014452;28;20637;-66
2024/01/18 06:09:18;;;;;;;3.47;1.70;;;-1.20;99.90;;;;;;5008352;28;20072;-66
2024/01/18 06:11:48;;;;;;;3.90;1.33;;;-1.20;99.90;;;;;;5015804;28;20034;-66
2024/01/18 06:14:15;;;;;;;2.65;1.60;;;-1.20;99.90;;;;;;5014870;28;20041;-66
2024/01/18 06:16:41;;;;;;;2.95;1.83;;;-1.20;99.90;;;;;;5009163;28;20116;-64
2024/01/18 06:19:06;;;;;;;2.20;1.50;;;-1.20;99.90;;;;;;5008445;28;20048;-64
2024/01/18 06:21:32;;;;;;;4.40;1.77;;;-1.10;99.90;;;;;;5008845;28;20447;-65
2024/01/18 06:23:58;;;;;;;4.43;1.73;;;-1.10;99.90;;;;;;5010007;28;20443;-64
2024/01/18 06:26:23;;;;;;;3.25;1.40;;;-1.10;99.90;;;;;;5004978;28;20041;-63
2024/01/18 06:28:49;;;;;;;4.78;1.92;;;-1.20;99.90;;;;;;5001236;28;20038;-65
2024/01/18 06:31:14;;;;;;;3.55;1.90;;;-1.20;99.90;;;;;;5010174;28;20052;-65
2024/01/18 06:33:41;;;;;;;4.28;1.85;;;-1.30;99.90;;;;;;5010401;28;20386;-64
2024/01/18 06:36:09;;;;;;;2.38;1.70;;;-1.30;99.90;;;;;;5019125;28;20742;-64
2024/01/18 06:38:35;;;;;;;5.07;1.73;;;-1.30;99.90;;;;;;5012559;28;20041;-64
2024/01/18 06:41:01;;;;;;;4.07;1.80;;;-1.40;99.90;;;;;;5013693;28;20091;-66
2024/01/18 06:43:27;;;;;;;4.53;1.77;;;-1.30;99.90;;;;;;5005808;28;20030;-63
2024/01/18 06:45:55;;;;;;;5.82;2.50;;;-1.30;99.90;;;;;;5012300;28;20781;-64
2024/01/18 06:48:24;;;;;;;3.38;2.00;;;-1.40;99.90;;;;;;5013403;28;20046;-65
2024/01/18 06:50:53;;;;;;;3.05;1.80;;;-1.40;99.90;;;;;;5009785;28;20030;-64
2024/01/18 06:53:19;;;;;;;5.63;2.05;;;-1.40;99.90;;;;;;5012001;28;20087;-65
2024/01/18 06:55:44;;;;;;;7.43;2.00;;;-1.50;99.90;;;;;;4998280;28;20046;-65
2024/01/18 06:58:10;;;;;;;5.90;2.50;;;-1.50;99.90;;;;;;5008675;28;20411;-65
2024/01/18 07:00:35;;;;;;;6.15;2.40;;;-1.40;99.90;;;;;;5013157;28;20045;-64
2024/01/18 07:03:01;;;;;;;19.15;3.38;;;-1.60;99.90;;;;;;5020713;28;20038;-65
2024/01/18 07:05:27;;;;;;;4.57;2.53;;;-1.80;99.90;;;;;;5009395;28;20049;-64
2024/01/18 07:07:52;;;;;;;5.35;3.08;;;-1.90;99.90;;;;;;5009988;28;20101;-65
2024/01/18 07:10:18;;;;;;;4.88;2.70;;;-1.90;99.90;;;;;;5016231;28;20495;-65
2024/01/18 07:12:44;;;;;;;6.55;2.70;;;-1.90;99.90;;;;;;5029767;28;20091;-64
2024/01/18 07:15:10;;;;;;;6.28;2.83;;;-1.90;99.90;;;;;;5031909;28;20686;-64
2024/01/18 07:17:36;;;;;;;5.70;2.45;;;-1.90;99.90;;;;;;5009310;28;20042;-64
2024/01/18 07:20:04;;;;;;;4.13;2.60;;;-1.90;99.90;;;;;;5012662;28;20466;-64
2024/01/18 07:22:29;;;;;;;5.75;2.67;;;-1.80;99.90;;;;;;5012579;28;20129;-64
2024/01/18 07:24:55;;;;;;;6.10;2.80;;;-1.80;99.90;;;;;;5000192;28;20125;-64
2024/01/18 07:27:21;;;;;;;4.63;2.90;;;-1.80;99.90;;;;;;5012769;28;20109;-64
2024/01/18 07:29:49;;;;;;;9.02;3.35;;;-1.90;99.90;;;;;;5012883;28;20573;-64
2024/01/18 07:32:15;;;;;;;10.48;3.10;;;-2.00;99.90;;;;;;5011810;28;20480;-65
2024/01/18 07:34:40;;;;;;;7.18;3.55;;;-2.00;99.90;;;;;;5005523;28;20037;-64
2024/01/18 07:37:08;;;;;;;7.30;3.88;;;-1.90;99.90;;;;;;5007533;28;20100;-66
2024/01/18 07:39:34;;;;;;;6.45;3.67;;;-2.00;99.90;;;;;;5006557;28;20134;-67
2024/01/18 07:42:00;;;;;;;6.72;3.28;;;-2.10;99.90;;;;;;4992073;28;20124;-64
2024/01/18 07:44:27;;;;;;;5.78;3.42;;;-2.10;99.90;;;;;;5005985;28;20390;-64
2024/01/18 07:46:53;;;;;;;5.78;3.20;;;-2.20;99.90;;;;;;5012274;28;20074;-64
2024/01/18 07:49:18;;;;;;;6.68;3.08;;;-2.10;99.90;;;;;;5012763;28;20079;-64
2024/01/18 07:51:44;;;;;;;6.28;3.17;;;-2.10;99.90;;;;;;5006911;28;20076;-63
2024/01/18 07:54:09;;;;;;;6.82;3.13;;;-2.20;99.90;;;;;;4999120;28;20076;-63
2024/01/18 07:56:35;;;;;;;9.00;3.15;;;-2.20;99.90;;;;;;5020978;28;20054;-64
2024/01/18 07:59:00;;;;;;;8.63;3.35;;;-2.20;99.90;;;;;;4999365;28;20057;-63
2024/01/18 08:01:26;;;;;;;6.80;2.85;;;-2.30;99.90;;;;;;5018349;28;20050;-64
2024/01/18 08:03:52;;;;;;;10.60;3.28;;;-2.40;99.90;;;;;;5010796;28;20045;-64
2024/01/18 08:06:17;;;;;;;8.13;3.20;;;-2.60;99.90;;;;;;5007951;28;20692;-66
2024/01/18 08:08:43;;;;;;;7.30;3.20;;;-2.60;99.90;;;;;;5002646;28;20030;-66
2024/01/18 08:11:10;;;;;;;7.63;3.30;;;-2.60;99.90;;;;;;5019159;28;20139;-66
2024/01/18 08:13:36;;;;;;;5.72;3.20;;;-2.60;99.90;;;;;;5003521;28;20041;-64
2024/01/18 08:16:01;;;;;;;10.13;3.20;;;-2.50;99.90;;;;;;5001846;28;20068;-64
2024/01/18 08:18:27;;;;;;;6.07;3.40;;;-2.50;99.90;;;;;;5005534;28;20116;-64
2024/01/18 08:20:52;;;;;;;6.25;3.10;;;-2.40;99.90;;;;;;5011366;28;20089;-66
2024/01/18 08:23:18;;;;;;;8.32;3.53;;;-2.40;99.90;;;;;;5006069;28;20129;-64
2024/01/18 08:25:44;;;;;;;6.82;3.30;;;-2.30;99.90;;;;;;4996397;28;20037;-64
2024/01/18 08:28:13;;;;;;;8.55;3.70;;;-2.30;99.90;;;;;;5011775;28;20038;-64
2024/01/18 08:30:39;;;;;;;8.80;3.80;;;-2.20;99.90;;;;;;5004432;28;20501;-64
2024/01/18 08:33:05;;;;;;;6.78;3.78;;;-2.20;99.90;;;;;;5000851;28;20038;-63
2024/01/18 08:35:30;;;;;;;15.27;3.65;;;-2.00;99.90;;;;;;5009925;28;20036;-66
2024/01/18 08:37:56;;;;;;;8.20;3.70;;;-2.00;99.90;;;;;;5011361;28;20045;-64
2024/01/18 08:40:23;;;;;;;7.10;3.97;;;-1.90;99.90;;;;;;5003749;28;20042;-65
2024/01/18 08:42:49;;;;;;;5.88;3.35;;;-1.90;99.90;;;;;;4998248;28;20045;-66
2024/01/18 08:45:14;;;;;;;8.73;4.13;;;-1.80;99.90;;;;;;5019160;28;20041;-65
2024/01/18 08:47:40;;;;;;;8.48;4.60;;;-1.70;99.90;;;;;;5007151;28;20036;-65
2024/01/18 08:50:06;;;;;;;8.20;3.95;;;-1.50;99.90;;;;;;5010876;28;20038;-66
2024/01/18 08:52:32;;;;;;;6.57;4.22;;;-1.30;99.90;;;;;;5011274;28;20072;-66
2024/01/18 08:54:57;;;;;;;6.50;4.18;;;-1.10;99.90;;;;;;5011542;28;20065;-63
2024/01/18 08:57:23;;;;;;;11.20;4.45;;;-1.00;99.90;;;;;;4999852;28;20091;-64
2024/01/18 08:59:48;;;;;;;6.40;3.10;;;-0.90;99.90;;;;;;4999290;28;20046;-65
2024/01/18 09:02:15;;;;;;;6.60;3.45;;;-0.90;99.90;;;;;;5006011;28;20463;-64
2024/01/18 09:04:40;;;;;;;5.72;3.60;;;-0.90;99.90;;;;;;4992145;28;20038;-63
2024/01/18 09:07:06;;;;;;;9.40;4.20;;;-0.90;99.90;;;;;;5004492;28;20038;-64
2024/01/18 09:09:31;;;;;;;10.75;4.28;;;-0.90;99.90;;;;;;4999052;28;20046;-64
2024/01/18 09:11:57;;;;;;;6.30;3.80;;;-0.90;99.90;;;;;;5011034;28;20493;-64
2024/01/18 09:14:23;;;;;;;12.57;4.60;;;-0.90;99.90;;;;;;5010409;28;20488;-64
2024/01/18 09:16:49;;;;;;;6.68;4.15;;;-0.90;99.90;;;;;;5000875;28;20524;-63
2024/01/18 09:19:15;;;;;;;7.47;4.28;;;-0.80;99.90;;;;;;5002284;28;20145;-63
2024/01/18 09:21:42;;;;;;;6.25;4.13;;;-0.70;99.90;;;;;;4995120;28;20544;-63
2024/01/18 09:24:07;;;;;;;11.30;4.80;;;-0.60;99.90;;;;;;5005906;28;20485;-64
2024/01/18 09:26:33;;;;;;;10.80;5.70;;;-0.60;99.90;;;;;;5011429;28;20096;-65
2024/01/18 09:28:58;;;;;;;11.07;5.78;;;-0.50;99.90;;;;;;5008115;28;22781;-63
2024/01/18 09:31:24;;;;;;;9.27;4.82;;;-0.50;99.90;;;;;;5002456;28;20042;-66
2024/01/18 09:33:50;;;;;;;8.48;4.50;;;-0.50;99.90;;;;;;4992113;28;20132;-63
2024/01/18 09:36:15;;;;;;;9.50;4.35;;;-0.40;99.90;;;;;;4990405;28;20136;-68
2024/01/18 09:38:41;;;;;;;9.27;4.57;;;-0.40;99.90;;;;;;5012482;28;20540;-63
2024/01/18 09:41:07;;;;;;;8.07;4.22;;;-0.30;99.90;;;;;;5016659;28;20404;-64
2024/01/18 09:43:39;;;;;;;11.63;4.45;;;-0.20;99.90;;;;;;5017234;28;20393;-63
2024/01/18 09:46:06;;;;;;;9.15;4.20;;;-0.10;99.90;;;;;;5011678;28;20073;-63
2024/01/18 09:48:36;;;;;;;9.43;4.40;;;-0.10;99.90;;;;;;4983054;28;20031;-64
2024/01/18 09:51:04;;;;;;;8.38;3.90;;;0.00;99.90;;;;;;5016681;28;20447;-64
2024/01/18 09:53:30;;;;;;;6.47;3.72;;;0.10;99.90;;;;;;5010490;28;20062;-65
2024/01/18 09:56:06;;;;;;;10.30;4.28;;;0.20;99.90;;;;;;5016109;28;20658;-64
2024/01/18 09:58:32;;;;;;;11.73;3.70;;;0.20;99.90;;;;;;5014018;28;20471;-64
2024/01/18 10:00:59;;;;;;;6.47;3.40;;;0.30;99.90;;;;;;5014621;28;20042;-63
2024/01/18 10:03:25;;;;;;;6.50;3.42;;;0.40;99.90;;;;;;5000949;28;20042;-64
2024/01/18 10:05:51;;;;;;;10.60;3.42;;;0.40;99.90;;;;;;5007473;28;20034;-66
2024/01/18 10:08:17;;;;;;;5.70;3.42;;;0.50;99.90;;;;;;5014409;28;20041;-65
2024/01/18 10:10:43;;;;;;;8.20;3.17;;;0.60;99.90;;;;;;5006372;28;20144;-65
2024/01/18 10:13:13;;;;;;;6.10;3.00;;;0.70;99.90;;;;;;5004389;28;20404;-66
2024/01/18 10:15:39;;;;;;;10.10;3.35;;;0.70;99.90;;;;;;5013759;28;20057;-65
2024/01/18 10:18:06;;;;;;;4.45;3.05;;;0.80;99.90;;;;;;5014670;28;20041;-64
2024/01/18 10:20:32;;;;;;;5.60;2.13;;;0.80;99.90;;;;;;5004870;28;20117;-64
2024/01/18 10:22:58;;;;;;;9.20;2.72;;;0.90;99.90;;;;;;5013289;28;20485;-64
2024/01/18 10:25:26;;;;;;;4.18;2.47;;;0.90;99.90;;;;;;5012648;28;20125;-64
2024/01/18 10:27:53;;;;;;;7.30;2.40;;;1.00;99.90;;;;;;4996997;28;20030;-64
2024/01/18 10:30:19;;;;;;;7.88;2.33;;;1.00;99.90;;;;;;5005987;28;20096;-64
2024/01/18 10:32:45;;;;;;;6.88;2.40;;;1.10;99.90;;;;;;5013672;28;20452;-64
2024/01/18 10:35:37;;;;;;;7.55;2.33;;;1.20;99.90;;;;;;5014177;28;20084;-66
2024/01/18 10:38:04;;;;;;;7.00;2.10;;;1.30;99.90;;;;;;4996914;28;20116;-66
2024/01/18 10:40:33;;;;;;;4.07;2.05;;;1.30;99.90;;;;;;5013323;28;20037;-64
2024/01/18 10:43:00;;;;;;;6.85;2.30;;;1.40;99.90;;;;;;5010610;28;20052;-64
2024/01/18 10:45:30;;;;;;;7.63;2.53;;;1.40;99.90;;;;;;4999526;28;20129;-65
2024/01/18 10:47:57;;;;;;;10.43;2.80;;;1.50;99.90;;;;;;5013549;28;20034;-64
2024/01/18 10:50:23;;;;;;;6.40;2.72;;;1.50;99.90;;;;;;5013717;28;20038;-66
2024/01/18 10:52:49;;;;;;;4.20;2.42;;;1.60;99.90;;;;;;5000814;28;20121;-66
2024/01/18 10:55:15;;;;;;;4.75;2.33;;;1.60;99.90;;;;;;5010828;28;20049;-66
2024/01/18 10:57:40;;;;;;;4.00;2.20;;;1.60;99.90;;;;;;5014060;28;20096;-66
2024/01/18 11:00:06;;;;;;;4.40;2.20;;;1.70;99.90;;;;;;4996734;28;20050;-66
2024/01/18 11:02:40;;;;;;;6.93;2.70;;;1.70;99.90;;;;;;5013584;28;20407;-66
2024/01/18 11:05:10;;;;;;;5.65;2.55;;;1.70;99.90;;;;;;5006522;28;20042;-64
2024/01/18 11:07:40;;;;;;;4.75;2.20;;;1.80;99.90;;;;;;5010690;28;20056;-66
2024/01/18 11:10:10;;;;;;;5.07;2.22;;;1.80;99.90;;;;;;5011897;28;20038;-66
2024/01/18 11:12:38;;;;;;;6.60;2.80;;;1.90;99.90;;;;;;5006820;28;20046;-67
2024/01/18 11:15:05;;;;;;;4.82;2.08;;;1.90;99.90;;;;;;5012258;28;20049;-67
2024/01/18 11:17:31;;;;;;;3.75;2.10;;;2.00;99.90;;;;;;5001507;28;20053;-66
2024/01/18 11:20:00;;;;;;;6.80;2.80;;;2.00;99.90;;;;;;5004504;28;20049;-65
2024/01/18 11:22:26;;;;;;;4.10;2.10;;;2.10;99.90;;;;;;5017820;28;20117;-67
2024/01/18 11:24:53;;;;;;;3.88;2.25;;;2.10;99.90;;;;;;5002557;28;20087;-70
2024/01/18 11:27:23;;;;;;;3.92;2.65;;;2.20;99.90;;;;;;4995571;28;20046;-67
2024/01/18 11:29:49;;;;;;;4.47;2.30;;;2.30;99.90;;;;;;5004717;28;20042;-65
2024/01/18 11:32:17;;;;;;;5.78;2.33;;;2.40;99.90;;;;;;5012455;28;20038;-65
2024/01/18 11:34:45;;;;;;;7.28;2.53;;;2.50;99.90;;;;;;4999033;28;20037;-65
2024/01/18 11:37:13;;;;;;;6.57;2.22;;;2.60;99.90;;;;;;5008486;28;20084;-65
2024/01/18 11:39:47;;;;;;;5.70;2.42;;;2.70;99.90;;;;;;5005240;28;20041;-65
2024/01/18 11:42:33;;;;;;;3.80;2.20;;;2.70;99.90;;;;;;4997891;28;20046;-66
2024/01/18 11:45:04;;;;;;;3.88;2.03;;;2.60;99.90;;;;;;4999332;28;20684;-67
2024/01/18 11:47:34;;;;;;;4.72;1.80;;;2.40;99.90;;;;;;5012785;28;20566;-67
2024/01/18 11:50:05;;;;;;;10.32;2.47;;;2.30;99.90;;;;;;5002360;28;20044;-67
2024/01/18 11:52:32;;;;;;;2.80;1.80;;;2.20;99.90;;;;;;5010304;28;20041;-67
2024/01/18 11:55:02;;;;;;;4.22;1.95;;;2.20;99.90;;;;;;5020227;28;20046;-68
2024/01/18 11:57:27;;;;;;;4.22;2.20;;;2.30;99.90;;;;;;5019730;28;20117;-67
2024/01/18 11:59:54;;;;;;;5.63;2.05;;;2.30;99.90;;;;;;5014418;28;21415;-68
2024/01/18 12:02:21;;;;;;;4.22;1.88;;;2.40;99.90;;;;;;5018509;28;20042;-67
2024/01/18 12:04:48;;;;;;;5.40;3.25;;;2.40;99.90;;;;;;5019939;28;20046;-66
2024/01/18 12:07:14;;;;;;;5.65;1.85;;;2.50;99.90;;;;;;5015426;28;20034;-66
2024/01/18 12:09:42;;;;;;;4.72;2.00;;;2.50;99.90;;;;;;5016800;28;20487;-66
2024/01/18 12:12:07;;;;;;;3.33;1.92;;;2.60;99.90;;;;;;5017680;28;20377;-66
2024/01/18 12:14:39;;;;;;;2.17;1.60;;;2.60;99.90;;;;;;5011941;28;20096;-66
2024/01/18 12:17:05;;;;;;;3.17;1.70;;;2.60;99.90;;;;;;4993551;28;20069;-65
2024/01/18 12:19:37;;;;;;;2.97;1.65;;;2.60;99.90;;;;;;5010317;28;20389;-65
2024/01/18 12:22:07;;;;;;;6.57;1.70;;;2.70;99.90;;;;;;5003511;28;20053;-65
2024/01/18 12:24:33;;;;;;;4.53;1.80;;;2.70;99.90;;;;;;5001053;28;20041;-65
2024/01/18 12:26:59;;;;;;;1.67;1.40;;;2.80;99.90;;;;;;5007457;28;20056;-66
2024/01/18 12:29:26;;;;;;;2.80;1.70;;;3.00;99.90;;;;;;5020637;28;20095;-66
2024/01/18 12:31:52;;;;;;;7.10;1.52;;;3.10;99.90;;;;;;5021891;28;20511;-66
2024/01/18 12:34:21;;;;;;;3.60;1.63;;;3.00;99.90;;;;;;5013352;28;20030;-65
2024/01/18 12:36:48;;;;;;;3.08;1.17;;;2.90;99.90;;;;;;5011870;28;20046;-65
2024/01/18 12:39:14;;;;;;;2.00;1.42;;;2.90;99.90;;;;;;5007947;28;20504;-66